sensor_id;sensor_type;location;lat;lon;timestamp;P1;durP1;ratioP1;P2;durP2;ratioP2
44110;SDS011;29774;52.664;5.074;2022-08-04T00:02:18;4.90;;;2.17;;
44110;SDS011;29774;52.664;5.074;2022-08-04T00:05:04;3.70;;;1.63;;
44110;SDS011;29774;52.664;5.074;2022-08-04T00:07:39;4.18;;;1.73;;
44110;SDS011;29774;52.664;5.074;2022-08-04T00:10:07;4.03;;;1.60;;
44110;SDS011;29774;52.664;5.074;2022-08-04T00:12:35;3.17;;;1.48;;
44110;SDS011;29774;52.664;5.074;2022-08-04T00:15:06;3.28;;;1.63;;
44110;SDS011;29774;52.664;5.074;2022-08-04T00:17:38;2.58;;;1.70;;
44110;SDS011;29774;52.664;5.074;2022-08-04T00:20:08;6.68;;;1.90;;
44110;SDS011;29774;52.664;5.074;2022-08-04T00:22:36;3.70;;;1.75;;
44110;SDS011;29774;52.664;5.074;2022-08-04T00:25:06;2.22;;;1.58;;
44110;SDS011;29774;52.664;5.074;2022-08-04T00:27:32;3.97;;;2.33;;
44110;SDS011;29774;52.664;5.074;2022-08-04T00:29:57;4.85;;;2.25;;
44110;SDS011;29774;52.664;5.074;2022-08-04T00:32:26;5.07;;;2.30;;
44110;SDS011;29774;52.664;5.074;2022-08-04T00:34:54;9.23;;;2.65;;
44110;SDS011;29774;52.664;5.074;2022-08-04T00:37:21;4.68;;;2.30;;
44110;SDS011;29774;52.664;5.074;2022-08-04T00:39:48;5.28;;;2.10;;
44110;SDS011;29774;52.664;5.074;2022-08-04T00:47:54;5.40;;;2.00;;
44110;SDS011;29774;52.664;5.074;2022-08-04T00:52:55;3.72;;;2.00;;
44110;SDS011;29774;52.664;5.074;2022-08-04T00:55:44;5.88;;;2.08;;
44110;SDS011;29774;52.664;5.074;2022-08-04T00:58:21;4.80;;;2.05;;
44110;SDS011;29774;52.664;5.074;2022-08-04T01:01:04;6.13;;;2.10;;
44110;SDS011;29774;52.664;5.074;2022-08-04T01:06:16;6.13;;;2.28;;
44110;SDS011;29774;52.664;5.074;2022-08-04T01:09:02;4.35;;;1.88;;
44110;SDS011;29774;52.664;5.074;2022-08-04T01:12:26;4.50;;;2.15;;
44110;SDS011;29774;52.664;5.074;2022-08-04T01:17:39;4.70;;;2.13;;
44110;SDS011;29774;52.664;5.074;2022-08-04T01:20:16;3.97;;;1.95;;
44110;SDS011;29774;52.664;5.074;2022-08-04T01:22:55;2.88;;;1.77;;
44110;SDS011;29774;52.664;5.074;2022-08-04T01:28:41;5.88;;;2.30;;
44110;SDS011;29774;52.664;5.074;2022-08-04T01:34:04;2.70;;;2.00;;
44110;SDS011;29774;52.664;5.074;2022-08-04T01:36:33;2.60;;;2.17;;
44110;SDS011;29774;52.664;5.074;2022-08-04T01:38:59;5.68;;;1.92;;
44110;SDS011;29774;52.664;5.074;2022-08-04T01:41:49;6.13;;;2.00;;
44110;SDS011;29774;52.664;5.074;2022-08-04T01:44:17;4.80;;;1.95;;
44110;SDS011;29774;52.664;5.074;2022-08-04T01:46:45;3.78;;;1.75;;
44110;SDS011;29774;52.664;5.074;2022-08-04T01:49:13;2.92;;;1.75;;
44110;SDS011;29774;52.664;5.074;2022-08-04T01:51:40;3.20;;;2.03;;
44110;SDS011;29774;52.664;5.074;2022-08-04T01:54:08;3.92;;;2.13;;
44110;SDS011;29774;52.664;5.074;2022-08-04T01:56:34;2.30;;;1.77;;
44110;SDS011;29774;52.664;5.074;2022-08-04T01:59:00;4.35;;;2.15;;
44110;SDS011;29774;52.664;5.074;2022-08-04T02:01:27;2.28;;;1.70;;
44110;SDS011;29774;52.664;5.074;2022-08-04T02:03:53;4.22;;;1.80;;
44110;SDS011;29774;52.664;5.074;2022-08-04T02:11:45;2.00;;;1.67;;
44110;SDS011;29774;52.664;5.074;2022-08-04T02:14:40;3.60;;;1.88;;
44110;SDS011;29774;52.664;5.074;2022-08-04T02:17:15;5.07;;;1.52;;
44110;SDS011;29774;52.664;5.074;2022-08-04T02:22:27;2.83;;;1.70;;
44110;SDS011;29774;52.664;5.074;2022-08-04T02:24:59;2.83;;;1.40;;
44110;SDS011;29774;52.664;5.074;2022-08-04T02:27:31;3.42;;;1.70;;
44110;SDS011;29774;52.664;5.074;2022-08-04T02:30:04;5.30;;;2.33;;
44110;SDS011;29774;52.664;5.074;2022-08-04T02:32:35;5.35;;;2.08;;
44110;SDS011;29774;52.664;5.074;2022-08-04T02:35:07;5.75;;;2.45;;
44110;SDS011;29774;52.664;5.074;2022-08-04T02:37:39;5.78;;;2.00;;
44110;SDS011;29774;52.664;5.074;2022-08-04T02:40:18;4.75;;;2.22;;
44110;SDS011;29774;52.664;5.074;2022-08-04T02:42:46;3.08;;;1.73;;
44110;SDS011;29774;52.664;5.074;2022-08-04T02:45:12;4.32;;;2.00;;
44110;SDS011;29774;52.664;5.074;2022-08-04T02:47:38;8.02;;;5.55;;
44110;SDS011;29774;52.664;5.074;2022-08-04T02:50:07;4.70;;;3.35;;
44110;SDS011;29774;52.664;5.074;2022-08-04T02:52:35;4.72;;;2.65;;
44110;SDS011;29774;52.664;5.074;2022-08-04T02:55:03;5.18;;;2.60;;
44110;SDS011;29774;52.664;5.074;2022-08-04T02:57:34;5.03;;;2.05;;
44110;SDS011;29774;52.664;5.074;2022-08-04T03:00:08;6.80;;;2.10;;
44110;SDS011;29774;52.664;5.074;2022-08-04T03:05:33;5.78;;;2.40;;
44110;SDS011;29774;52.664;5.074;2022-08-04T03:08:08;3.75;;;1.60;;
44110;SDS011;29774;52.664;5.074;2022-08-04T03:13:29;3.75;;;1.88;;
44110;SDS011;29774;52.664;5.074;2022-08-04T03:16:29;4.15;;;2.17;;
44110;SDS011;29774;52.664;5.074;2022-08-04T03:19:27;5.60;;;2.20;;
44110;SDS011;29774;52.664;5.074;2022-08-04T03:22:17;5.00;;;2.20;;
44110;SDS011;29774;52.664;5.074;2022-08-04T03:24:58;7.50;;;2.60;;
44110;SDS011;29774;52.664;5.074;2022-08-04T03:30:43;2.90;;;2.10;;
44110;SDS011;29774;52.664;5.074;2022-08-04T03:33:23;4.55;;;1.60;;
44110;SDS011;29774;52.664;5.074;2022-08-04T03:39:13;4.68;;;2.10;;
44110;SDS011;29774;52.664;5.074;2022-08-04T03:42:08;4.60;;;2.53;;
44110;SDS011;29774;52.664;5.074;2022-08-04T03:50:55;5.35;;;2.00;;
44110;SDS011;29774;52.664;5.074;2022-08-04T04:16:37;4.68;;;2.80;;
44110;SDS011;29774;52.664;5.074;2022-08-04T04:19:40;6.18;;;2.80;;
44110;SDS011;29774;52.664;5.074;2022-08-04T04:22:40;5.47;;;2.70;;
44110;SDS011;29774;52.664;5.074;2022-08-04T04:28:16;3.83;;;2.72;;
44110;SDS011;29774;52.664;5.074;2022-08-04T04:33:57;6.38;;;3.63;;
44110;SDS011;29774;52.664;5.074;2022-08-04T04:37:00;5.80;;;3.45;;
44110;SDS011;29774;52.664;5.074;2022-08-04T04:45:11;2.70;;;1.70;;
44110;SDS011;29774;52.664;5.074;2022-08-04T04:55:55;6.00;;;3.45;;
44110;SDS011;29774;52.664;5.074;2022-08-04T04:58:35;4.78;;;2.83;;
44110;SDS011;29774;52.664;5.074;2022-08-04T05:14:38;2.78;;;1.50;;
44110;SDS011;29774;52.664;5.074;2022-08-04T05:20:03;1.85;;;1.30;;
44110;SDS011;29774;52.664;5.074;2022-08-04T05:22:46;4.20;;;3.08;;
44110;SDS011;29774;52.664;5.074;2022-08-04T05:30:40;3.05;;;1.27;;
44110;SDS011;29774;52.664;5.074;2022-08-04T05:33:14;2.35;;;1.73;;
44110;SDS011;29774;52.664;5.074;2022-08-04T05:35:57;6.18;;;1.55;;
44110;SDS011;29774;52.664;5.074;2022-08-04T05:38:28;2.67;;;1.55;;
44110;SDS011;29774;52.664;5.074;2022-08-04T05:40:58;4.18;;;1.70;;
44110;SDS011;29774;52.664;5.074;2022-08-04T05:43:25;1.83;;;1.20;;
44110;SDS011;29774;52.664;5.074;2022-08-04T05:45:51;2.78;;;1.50;;
44110;SDS011;29774;52.664;5.074;2022-08-04T05:48:18;2.35;;;1.38;;
44110;SDS011;29774;52.664;5.074;2022-08-04T05:50:45;2.40;;;1.40;;
44110;SDS011;29774;52.664;5.074;2022-08-04T05:53:12;3.17;;;1.40;;
44110;SDS011;29774;52.664;5.074;2022-08-04T05:55:39;2.38;;;1.45;;
44110;SDS011;29774;52.664;5.074;2022-08-04T05:58:05;1.98;;;1.45;;
44110;SDS011;29774;52.664;5.074;2022-08-04T06:00:31;2.38;;;1.75;;
44110;SDS011;29774;52.664;5.074;2022-08-04T06:02:58;3.92;;;1.30;;
44110;SDS011;29774;52.664;5.074;2022-08-04T06:05:25;3.00;;;1.38;;
44110;SDS011;29774;52.664;5.074;2022-08-04T06:07:52;2.17;;;1.23;;
44110;SDS011;29774;52.664;5.074;2022-08-04T06:10:18;2.03;;;1.23;;
44110;SDS011;29774;52.664;5.074;2022-08-04T06:12:45;2.67;;;1.33;;
44110;SDS011;29774;52.664;5.074;2022-08-04T06:15:16;1.88;;;1.25;;
44110;SDS011;29774;52.664;5.074;2022-08-04T06:17:45;1.77;;;1.27;;
44110;SDS011;29774;52.664;5.074;2022-08-04T06:20:13;2.45;;;1.52;;
44110;SDS011;29774;52.664;5.074;2022-08-04T06:22:41;2.80;;;1.35;;
44110;SDS011;29774;52.664;5.074;2022-08-04T06:25:10;2.17;;;1.13;;
44110;SDS011;29774;52.664;5.074;2022-08-04T06:27:40;1.98;;;1.52;;
44110;SDS011;29774;52.664;5.074;2022-08-04T06:30:08;3.45;;;1.20;;
44110;SDS011;29774;52.664;5.074;2022-08-04T06:32:38;1.83;;;1.23;;
44110;SDS011;29774;52.664;5.074;2022-08-04T06:35:13;1.27;;;1.17;;
44110;SDS011;29774;52.664;5.074;2022-08-04T06:37:40;2.95;;;1.30;;
44110;SDS011;29774;52.664;5.074;2022-08-04T06:40:07;1.83;;;1.17;;
44110;SDS011;29774;52.664;5.074;2022-08-04T06:42:34;1.67;;;1.10;;
44110;SDS011;29774;52.664;5.074;2022-08-04T06:45:01;2.00;;;1.10;;
44110;SDS011;29774;52.664;5.074;2022-08-04T06:47:29;1.58;;;1.20;;
44110;SDS011;29774;52.664;5.074;2022-08-04T06:49:56;2.10;;;1.20;;
44110;SDS011;29774;52.664;5.074;2022-08-04T06:52:22;3.38;;;1.30;;
44110;SDS011;29774;52.664;5.074;2022-08-04T06:54:49;1.35;;;1.17;;
44110;SDS011;29774;52.664;5.074;2022-08-04T06:57:19;2.33;;;1.35;;
44110;SDS011;29774;52.664;5.074;2022-08-04T06:59:50;0.80;;;0.70;;
44110;SDS011;29774;52.664;5.074;2022-08-04T07:02:23;3.05;;;1.10;;
44110;SDS011;29774;52.664;5.074;2022-08-04T07:04:50;1.73;;;1.25;;
44110;SDS011;29774;52.664;5.074;2022-08-04T07:07:17;3.40;;;1.00;;
44110;SDS011;29774;52.664;5.074;2022-08-04T07:09:43;2.15;;;1.08;;
44110;SDS011;29774;52.664;5.074;2022-08-04T07:12:09;1.98;;;1.10;;
44110;SDS011;29774;52.664;5.074;2022-08-04T07:14:36;1.80;;;1.10;;
44110;SDS011;29774;52.664;5.074;2022-08-04T07:17:03;3.95;;;1.60;;
44110;SDS011;29774;52.664;5.074;2022-08-04T07:19:30;1.83;;;1.00;;
44110;SDS011;29774;52.664;5.074;2022-08-04T07:21:57;1.02;;;0.90;;
44110;SDS011;29774;52.664;5.074;2022-08-04T07:24:31;1.90;;;1.30;;
44110;SDS011;29774;52.664;5.074;2022-08-04T07:26:57;3.00;;;1.13;;
44110;SDS011;29774;52.664;5.074;2022-08-04T07:29:23;1.45;;;1.17;;
44110;SDS011;29774;52.664;5.074;2022-08-04T07:31:49;2.47;;;0.70;;
44110;SDS011;29774;52.664;5.074;2022-08-04T07:34:15;2.10;;;0.90;;
44110;SDS011;29774;52.664;5.074;2022-08-04T07:36:42;3.25;;;0.98;;
44110;SDS011;29774;52.664;5.074;2022-08-04T07:39:07;1.25;;;0.90;;
44110;SDS011;29774;52.664;5.074;2022-08-04T07:41:33;2.85;;;0.80;;
44110;SDS011;29774;52.664;5.074;2022-08-04T07:43:59;2.20;;;1.40;;
44110;SDS011;29774;52.664;5.074;2022-08-04T07:46:25;2.25;;;1.10;;
44110;SDS011;29774;52.664;5.074;2022-08-04T07:48:51;2.78;;;1.00;;
44110;SDS011;29774;52.664;5.074;2022-08-04T07:51:16;2.65;;;1.20;;
44110;SDS011;29774;52.664;5.074;2022-08-04T07:53:43;1.38;;;0.90;;
44110;SDS011;29774;52.664;5.074;2022-08-04T07:56:09;3.17;;;1.23;;
44110;SDS011;29774;52.664;5.074;2022-08-04T07:58:35;2.28;;;1.17;;
44110;SDS011;29774;52.664;5.074;2022-08-04T08:01:01;2.28;;;1.30;;
44110;SDS011;29774;52.664;5.074;2022-08-04T08:03:27;2.03;;;0.98;;
44110;SDS011;29774;52.664;5.074;2022-08-04T08:05:53;1.52;;;0.98;;
44110;SDS011;29774;52.664;5.074;2022-08-04T08:08:19;1.30;;;1.00;;
44110;SDS011;29774;52.664;5.074;2022-08-04T08:10:46;1.27;;;0.93;;
44110;SDS011;29774;52.664;5.074;2022-08-04T08:13:12;0.90;;;0.70;;
44110;SDS011;29774;52.664;5.074;2022-08-04T08:15:40;1.92;;;1.17;;
44110;SDS011;29774;52.664;5.074;2022-08-04T08:18:07;1.77;;;0.80;;
44110;SDS011;29774;52.664;5.074;2022-08-04T08:20:33;0.90;;;0.82;;
44110;SDS011;29774;52.664;5.074;2022-08-04T08:22:59;3.05;;;1.25;;
44110;SDS011;29774;52.664;5.074;2022-08-04T08:25:26;1.63;;;0.77;;
44110;SDS011;29774;52.664;5.074;2022-08-04T08:27:51;1.75;;;1.30;;
44110;SDS011;29774;52.664;5.074;2022-08-04T08:30:17;0.90;;;0.80;;
44110;SDS011;29774;52.664;5.074;2022-08-04T08:32:42;1.90;;;0.85;;
44110;SDS011;29774;52.664;5.074;2022-08-04T08:35:08;1.52;;;1.00;;
44110;SDS011;29774;52.664;5.074;2022-08-04T08:37:37;2.42;;;1.13;;
44110;SDS011;29774;52.664;5.074;2022-08-04T08:40:16;1.00;;;0.80;;
44110;SDS011;29774;52.664;5.074;2022-08-04T08:46:23;1.30;;;1.02;;
44110;SDS011;29774;52.664;5.074;2022-08-04T08:52:20;1.13;;;0.80;;
44110;SDS011;29774;52.664;5.074;2022-08-04T08:57:48;2.05;;;1.08;;
44110;SDS011;29774;52.664;5.074;2022-08-04T09:06:03;2.35;;;0.93;;
44110;SDS011;29774;52.664;5.074;2022-08-04T09:09:47;2.40;;;0.75;;
44110;SDS011;29774;52.664;5.074;2022-08-04T09:12:13;1.33;;;1.15;;
44110;SDS011;29774;52.664;5.074;2022-08-04T09:14:44;2.40;;;1.00;;
44110;SDS011;29774;52.664;5.074;2022-08-04T09:17:42;1.38;;;0.90;;
44110;SDS011;29774;52.664;5.074;2022-08-04T09:20:21;2.22;;;0.80;;
44110;SDS011;29774;52.664;5.074;2022-08-04T09:25:37;1.73;;;0.80;;
44110;SDS011;29774;52.664;5.074;2022-08-04T09:28:18;1.38;;;0.80;;
44110;SDS011;29774;52.664;5.074;2022-08-04T09:30:51;1.52;;;0.90;;
44110;SDS011;29774;52.664;5.074;2022-08-04T09:41:28;1.42;;;1.10;;
44110;SDS011;29774;52.664;5.074;2022-08-04T09:47:04;2.60;;;0.93;;
44110;SDS011;29774;52.664;5.074;2022-08-04T09:49:39;1.92;;;0.90;;
44110;SDS011;29774;52.664;5.074;2022-08-04T09:52:45;4.38;;;1.25;;
44110;SDS011;29774;52.664;5.074;2022-08-04T09:55:40;2.25;;;1.10;;
44110;SDS011;29774;52.664;5.074;2022-08-04T09:58:38;3.20;;;0.90;;
44110;SDS011;29774;52.664;5.074;2022-08-04T10:01:22;2.63;;;1.10;;
44110;SDS011;29774;52.664;5.074;2022-08-04T10:03:59;1.75;;;1.15;;
44110;SDS011;29774;52.664;5.074;2022-08-04T10:09:32;2.95;;;1.50;;
44110;SDS011;29774;52.664;5.074;2022-08-04T10:12:15;2.38;;;1.13;;
44110;SDS011;29774;52.664;5.074;2022-08-04T10:20:27;4.18;;;1.38;;
44110;SDS011;29774;52.664;5.074;2022-08-04T10:26:26;1.33;;;1.10;;
44110;SDS011;29774;52.664;5.074;2022-08-04T10:31:58;3.28;;;1.83;;
44110;SDS011;29774;52.664;5.074;2022-08-04T10:37:29;2.47;;;1.02;;
44110;SDS011;29774;52.664;5.074;2022-08-04T10:40:06;2.35;;;1.30;;
44110;SDS011;29774;52.664;5.074;2022-08-04T10:45:33;2.53;;;1.35;;
44110;SDS011;29774;52.664;5.074;2022-08-04T10:48:06;1.67;;;1.10;;
44110;SDS011;29774;52.664;5.074;2022-08-04T10:53:28;1.83;;;1.35;;
44110;SDS011;29774;52.664;5.074;2022-08-04T10:56:02;2.25;;;1.35;;
44110;SDS011;29774;52.664;5.074;2022-08-04T10:58:38;2.00;;;1.15;;
44110;SDS011;29774;52.664;5.074;2022-08-04T11:01:11;3.55;;;1.10;;
44110;SDS011;29774;52.664;5.074;2022-08-04T11:03:47;4.22;;;1.23;;
44110;SDS011;29774;52.664;5.074;2022-08-04T11:06:20;1.85;;;1.02;;
44110;SDS011;29774;52.664;5.074;2022-08-04T11:08:49;2.55;;;1.10;;
44110;SDS011;29774;52.664;5.074;2022-08-04T11:14:10;2.28;;;1.00;;
44110;SDS011;29774;52.664;5.074;2022-08-04T11:16:49;3.35;;;0.90;;
44110;SDS011;29774;52.664;5.074;2022-08-04T11:22:14;2.25;;;1.13;;
44110;SDS011;29774;52.664;5.074;2022-08-04T11:24:51;2.28;;;1.08;;
44110;SDS011;29774;52.664;5.074;2022-08-04T11:27:28;2.17;;;1.05;;
44110;SDS011;29774;52.664;5.074;2022-08-04T11:30:04;2.80;;;1.13;;
44110;SDS011;29774;52.664;5.074;2022-08-04T11:35:26;2.20;;;1.38;;
44110;SDS011;29774;52.664;5.074;2022-08-04T11:38:05;1.05;;;0.93;;
44110;SDS011;29774;52.664;5.074;2022-08-04T11:40:41;1.58;;;1.10;;
44110;SDS011;29774;52.664;5.074;2022-08-04T11:43:09;1.92;;;1.17;;
44110;SDS011;29774;52.664;5.074;2022-08-04T11:46:02;1.70;;;0.82;;
44110;SDS011;29774;52.664;5.074;2022-08-04T11:48:32;2.10;;;0.93;;
44110;SDS011;29774;52.664;5.074;2022-08-04T11:51:01;1.88;;;1.00;;
44110;SDS011;29774;52.664;5.074;2022-08-04T11:53:29;2.65;;;1.25;;
44110;SDS011;29774;52.664;5.074;2022-08-04T11:55:58;1.95;;;1.10;;
44110;SDS011;29774;52.664;5.074;2022-08-04T11:58:26;2.92;;;0.98;;
44110;SDS011;29774;52.664;5.074;2022-08-04T12:06:24;2.00;;;0.90;;
44110;SDS011;29774;52.664;5.074;2022-08-04T12:14:30;1.80;;;1.00;;
44110;SDS011;29774;52.664;5.074;2022-08-04T12:17:08;2.30;;;1.15;;
44110;SDS011;29774;52.664;5.074;2022-08-04T12:19:38;2.20;;;1.10;;
44110;SDS011;29774;52.664;5.074;2022-08-04T12:22:10;0.98;;;0.90;;
44110;SDS011;29774;52.664;5.074;2022-08-04T12:24:58;1.42;;;0.80;;
44110;SDS011;29774;52.664;5.074;2022-08-04T12:27:32;1.90;;;1.10;;
44110;SDS011;29774;52.664;5.074;2022-08-04T12:30:19;1.77;;;1.00;;
44110;SDS011;29774;52.664;5.074;2022-08-04T12:33:06;1.77;;;0.90;;
44110;SDS011;29774;52.664;5.074;2022-08-04T12:35:57;3.65;;;1.45;;
44110;SDS011;29774;52.664;5.074;2022-08-04T12:38:26;0.98;;;0.85;;
44110;SDS011;29774;52.664;5.074;2022-08-04T12:40:56;1.42;;;0.80;;
44110;SDS011;29774;52.664;5.074;2022-08-04T12:43:36;1.50;;;1.02;;
44110;SDS011;29774;52.664;5.074;2022-08-04T12:46:04;1.30;;;1.10;;
44110;SDS011;29774;52.664;5.074;2022-08-04T12:48:34;2.83;;;0.98;;
44110;SDS011;29774;52.664;5.074;2022-08-04T12:51:01;2.10;;;1.02;;
44110;SDS011;29774;52.664;5.074;2022-08-04T12:53:29;1.73;;;0.98;;
44110;SDS011;29774;52.664;5.074;2022-08-04T12:55:58;2.85;;;1.20;;
44110;SDS011;29774;52.664;5.074;2022-08-04T12:58:26;0.98;;;0.80;;
44110;SDS011;29774;52.664;5.074;2022-08-04T13:00:58;1.05;;;0.95;;
44110;SDS011;29774;52.664;5.074;2022-08-04T13:03:36;1.65;;;0.70;;
44110;SDS011;29774;52.664;5.074;2022-08-04T13:06:09;1.52;;;1.00;;
44110;SDS011;29774;52.664;5.074;2022-08-04T13:08:38;1.83;;;1.20;;
44110;SDS011;29774;52.664;5.074;2022-08-04T13:11:05;1.25;;;0.90;;
44110;SDS011;29774;52.664;5.074;2022-08-04T13:13:33;1.35;;;0.80;;
44110;SDS011;29774;52.664;5.074;2022-08-04T13:16:01;1.80;;;1.00;;
44110;SDS011;29774;52.664;5.074;2022-08-04T13:18:30;1.50;;;1.00;;
44110;SDS011;29774;52.664;5.074;2022-08-04T13:23:56;1.60;;;0.90;;
44110;SDS011;29774;52.664;5.074;2022-08-04T13:26:26;1.00;;;0.90;;
44110;SDS011;29774;52.664;5.074;2022-08-04T13:28:53;1.20;;;0.90;;
44110;SDS011;29774;52.664;5.074;2022-08-04T13:31:22;2.20;;;0.93;;
44110;SDS011;29774;52.664;5.074;2022-08-04T13:33:51;2.15;;;0.80;;
44110;SDS011;29774;52.664;5.074;2022-08-04T13:36:22;3.38;;;0.80;;
44110;SDS011;29774;52.664;5.074;2022-08-04T13:38:54;2.88;;;0.85;;
44110;SDS011;29774;52.664;5.074;2022-08-04T13:41:22;1.90;;;0.73;;
44110;SDS011;29774;52.664;5.074;2022-08-04T13:43:49;1.83;;;0.85;;
44110;SDS011;29774;52.664;5.074;2022-08-04T13:46:21;2.45;;;1.10;;
44110;SDS011;29774;52.664;5.074;2022-08-04T13:48:49;1.38;;;0.88;;
44110;SDS011;29774;52.664;5.074;2022-08-04T13:51:16;1.02;;;0.88;;
44110;SDS011;29774;52.664;5.074;2022-08-04T13:53:44;0.90;;;0.80;;
44110;SDS011;29774;52.664;5.074;2022-08-04T13:56:18;2.58;;;0.90;;
44110;SDS011;29774;52.664;5.074;2022-08-04T13:58:46;1.33;;;0.68;;
44110;SDS011;29774;52.664;5.074;2022-08-04T14:01:19;1.38;;;0.82;;
44110;SDS011;29774;52.664;5.074;2022-08-04T14:06:17;0.80;;;0.80;;
44110;SDS011;29774;52.664;5.074;2022-08-04T14:11:22;1.20;;;0.90;;
44110;SDS011;29774;52.664;5.074;2022-08-04T14:13:57;2.38;;;0.70;;
44110;SDS011;29774;52.664;5.074;2022-08-04T14:16:23;0.98;;;0.80;;
44110;SDS011;29774;52.664;5.074;2022-08-04T14:18:59;2.15;;;0.98;;
44110;SDS011;29774;52.664;5.074;2022-08-04T14:21:25;1.52;;;0.70;;
44110;SDS011;29774;52.664;5.074;2022-08-04T14:23:52;1.75;;;0.82;;
44110;SDS011;29774;52.664;5.074;2022-08-04T14:28:51;1.00;;;0.93;;
44110;SDS011;29774;52.664;5.074;2022-08-04T14:31:21;2.45;;;0.90;;
44110;SDS011;29774;52.664;5.074;2022-08-04T14:33:49;2.08;;;0.90;;
44110;SDS011;29774;52.664;5.074;2022-08-04T14:36:16;1.08;;;0.68;;
44110;SDS011;29774;52.664;5.074;2022-08-04T14:38:56;1.02;;;0.80;;
44110;SDS011;29774;52.664;5.074;2022-08-04T14:41:30;2.08;;;1.10;;
44110;SDS011;29774;52.664;5.074;2022-08-04T14:44:12;2.35;;;1.05;;
44110;SDS011;29774;52.664;5.074;2022-08-04T14:46:51;1.13;;;0.85;;
44110;SDS011;29774;52.664;5.074;2022-08-04T14:49:21;1.05;;;0.63;;
44110;SDS011;29774;52.664;5.074;2022-08-04T14:51:57;2.33;;;1.20;;
44110;SDS011;29774;52.664;5.074;2022-08-04T14:54:27;1.02;;;0.85;;
44110;SDS011;29774;52.664;5.074;2022-08-04T14:56:55;1.58;;;0.85;;
44110;SDS011;29774;52.664;5.074;2022-08-04T14:59:44;1.20;;;1.00;;
44110;SDS011;29774;52.664;5.074;2022-08-04T15:02:11;1.70;;;0.75;;
44110;SDS011;29774;52.664;5.074;2022-08-04T15:04:38;1.17;;;1.08;;
44110;SDS011;29774;52.664;5.074;2022-08-04T15:07:06;3.50;;;1.63;;
44110;SDS011;29774;52.664;5.074;2022-08-04T15:09:32;2.20;;;0.98;;
44110;SDS011;29774;52.664;5.074;2022-08-04T15:11:59;3.85;;;1.75;;
44110;SDS011;29774;52.664;5.074;2022-08-04T15:14:26;3.30;;;1.38;;
44110;SDS011;29774;52.664;5.074;2022-08-04T15:16:53;1.70;;;1.08;;
44110;SDS011;29774;52.664;5.074;2022-08-04T15:19:19;3.20;;;1.40;;
44110;SDS011;29774;52.664;5.074;2022-08-04T15:21:44;2.03;;;1.13;;
44110;SDS011;29774;52.664;5.074;2022-08-04T15:24:10;4.22;;;1.40;;
44110;SDS011;29774;52.664;5.074;2022-08-04T15:26:57;2.40;;;1.00;;
44110;SDS011;29774;52.664;5.074;2022-08-04T15:32:23;2.83;;;1.00;;
44110;SDS011;29774;52.664;5.074;2022-08-04T15:34:50;2.30;;;1.10;;
44110;SDS011;29774;52.664;5.074;2022-08-04T15:37:24;5.50;;;1.27;;
44110;SDS011;29774;52.664;5.074;2022-08-04T15:39:57;1.65;;;1.05;;
44110;SDS011;29774;52.664;5.074;2022-08-04T15:42:42;2.33;;;1.00;;
44110;SDS011;29774;52.664;5.074;2022-08-04T15:45:17;3.08;;;1.50;;
44110;SDS011;29774;52.664;5.074;2022-08-04T15:50:28;2.22;;;1.15;;
44110;SDS011;29774;52.664;5.074;2022-08-04T15:55:29;2.40;;;1.20;;
44110;SDS011;29774;52.664;5.074;2022-08-04T15:58:13;1.77;;;1.00;;
44110;SDS011;29774;52.664;5.074;2022-08-04T16:19:08;2.53;;;1.50;;
44110;SDS011;29774;52.664;5.074;2022-08-04T16:21:50;2.15;;;1.13;;
44110;SDS011;29774;52.664;5.074;2022-08-04T16:24:18;3.55;;;1.90;;
44110;SDS011;29774;52.664;5.074;2022-08-04T16:37:02;3.92;;;1.60;;
44110;SDS011;29774;52.664;5.074;2022-08-04T16:39:29;1.92;;;1.20;;
44110;SDS011;29774;52.664;5.074;2022-08-04T16:41:55;2.67;;;1.38;;
44110;SDS011;29774;52.664;5.074;2022-08-04T16:44:31;3.50;;;1.30;;
44110;SDS011;29774;52.664;5.074;2022-08-04T16:47:03;3.03;;;1.30;;
44110;SDS011;29774;52.664;5.074;2022-08-04T16:49:30;2.80;;;1.65;;
44110;SDS011;29774;52.664;5.074;2022-08-04T16:52:01;1.85;;;1.20;;
44110;SDS011;29774;52.664;5.074;2022-08-04T16:54:35;2.97;;;1.27;;
44110;SDS011;29774;52.664;5.074;2022-08-04T16:57:09;2.67;;;1.23;;
44110;SDS011;29774;52.664;5.074;2022-08-04T16:59:54;2.78;;;1.48;;
44110;SDS011;29774;52.664;5.074;2022-08-04T17:02:23;1.58;;;1.10;;
44110;SDS011;29774;52.664;5.074;2022-08-04T17:04:49;3.65;;;1.10;;
44110;SDS011;29774;52.664;5.074;2022-08-04T17:07:15;2.65;;;1.20;;
44110;SDS011;29774;52.664;5.074;2022-08-04T17:09:48;1.92;;;1.13;;
44110;SDS011;29774;52.664;5.074;2022-08-04T17:12:14;1.35;;;0.90;;
44110;SDS011;29774;52.664;5.074;2022-08-04T17:14:40;2.50;;;1.13;;
44110;SDS011;29774;52.664;5.074;2022-08-04T17:17:06;2.70;;;1.52;;
44110;SDS011;29774;52.664;5.074;2022-08-04T17:19:31;2.50;;;1.33;;
44110;SDS011;29774;52.664;5.074;2022-08-04T17:22:01;2.95;;;1.30;;
44110;SDS011;29774;52.664;5.074;2022-08-04T17:24:28;3.05;;;1.23;;
44110;SDS011;29774;52.664;5.074;2022-08-04T17:26:54;1.50;;;1.35;;
44110;SDS011;29774;52.664;5.074;2022-08-04T17:29:22;1.52;;;1.13;;
44110;SDS011;29774;52.664;5.074;2022-08-04T17:31:53;4.03;;;1.33;;
44110;SDS011;29774;52.664;5.074;2022-08-04T17:34:19;2.47;;;1.30;;
44110;SDS011;29774;52.664;5.074;2022-08-04T17:36:45;2.78;;;1.65;;
44110;SDS011;29774;52.664;5.074;2022-08-04T17:39:15;2.20;;;1.25;;
44110;SDS011;29774;52.664;5.074;2022-08-04T17:41:44;1.92;;;1.25;;
44110;SDS011;29774;52.664;5.074;2022-08-04T17:47:16;2.05;;;1.00;;
44110;SDS011;29774;52.664;5.074;2022-08-04T17:49:45;2.78;;;1.02;;
44110;SDS011;29774;52.664;5.074;2022-08-04T17:52:18;2.65;;;1.20;;
44110;SDS011;29774;52.664;5.074;2022-08-04T17:54:45;1.92;;;1.30;;
44110;SDS011;29774;52.664;5.074;2022-08-04T17:59:44;1.88;;;1.00;;
44110;SDS011;29774;52.664;5.074;2022-08-04T18:02:12;1.83;;;0.98;;
44110;SDS011;29774;52.664;5.074;2022-08-04T18:07:18;1.45;;;1.08;;
44110;SDS011;29774;52.664;5.074;2022-08-04T18:15:01;2.47;;;1.10;;
44110;SDS011;29774;52.664;5.074;2022-08-04T18:17:37;2.03;;;0.90;;
44110;SDS011;29774;52.664;5.074;2022-08-04T18:20:15;1.30;;;0.85;;
44110;SDS011;29774;52.664;5.074;2022-08-04T18:22:43;2.13;;;1.00;;
44110;SDS011;29774;52.664;5.074;2022-08-04T18:25:14;1.08;;;0.90;;
44110;SDS011;29774;52.664;5.074;2022-08-04T18:27:47;1.85;;;1.15;;
44110;SDS011;29774;52.664;5.074;2022-08-04T18:30:18;3.67;;;0.93;;
44110;SDS011;29774;52.664;5.074;2022-08-04T18:32:45;1.88;;;1.20;;
44110;SDS011;29774;52.664;5.074;2022-08-04T18:35:10;1.45;;;0.98;;
44110;SDS011;29774;52.664;5.074;2022-08-04T18:37:36;4.28;;;1.08;;
44110;SDS011;29774;52.664;5.074;2022-08-04T18:40:03;2.25;;;1.00;;
44110;SDS011;29774;52.664;5.074;2022-08-04T18:42:29;3.03;;;1.00;;
44110;SDS011;29774;52.664;5.074;2022-08-04T18:44:55;2.17;;;1.20;;
44110;SDS011;29774;52.664;5.074;2022-08-04T18:47:21;3.33;;;1.20;;
44110;SDS011;29774;52.664;5.074;2022-08-04T18:49:48;3.13;;;1.25;;
44110;SDS011;29774;52.664;5.074;2022-08-04T18:52:18;5.82;;;1.50;;
44110;SDS011;29774;52.664;5.074;2022-08-04T18:54:43;3.53;;;1.48;;
44110;SDS011;29774;52.664;5.074;2022-08-04T18:57:09;5.95;;;1.60;;
44110;SDS011;29774;52.664;5.074;2022-08-04T18:59:35;6.97;;;2.35;;
44110;SDS011;29774;52.664;5.074;2022-08-04T19:02:00;4.18;;;1.42;;
44110;SDS011;29774;52.664;5.074;2022-08-04T19:04:26;3.63;;;1.48;;
44110;SDS011;29774;52.664;5.074;2022-08-04T19:06:52;3.53;;;1.50;;
44110;SDS011;29774;52.664;5.074;2022-08-04T19:09:17;1.92;;;1.20;;
44110;SDS011;29774;52.664;5.074;2022-08-04T19:11:43;4.22;;;1.25;;
44110;SDS011;29774;52.664;5.074;2022-08-04T19:14:09;2.70;;;1.20;;
44110;SDS011;29774;52.664;5.074;2022-08-04T19:16:35;4.85;;;1.70;;
44110;SDS011;29774;52.664;5.074;2022-08-04T19:19:03;3.88;;;1.60;;
44110;SDS011;29774;52.664;5.074;2022-08-04T19:21:30;3.22;;;1.88;;